createdAt,value
2023-01-30T00:00:02.121Z,22.85
2023-01-30T00:02:35.257Z,24.65
2023-01-30T00:05:02.523Z,26.35
2023-01-30T00:07:31.132Z,25.20
2023-01-30T00:10:01.136Z,25.45
2023-01-30T00:12:37.367Z,25.10
2023-01-30T00:15:05.203Z,25.52
2023-01-30T00:17:32.384Z,26.15
2023-01-30T00:19:59.637Z,26.25
2023-01-30T00:22:26.878Z,23.42
2023-01-30T00:24:54.251Z,24.38
2023-01-30T00:27:21.628Z,23.08
2023-01-30T00:29:57.810Z,23.80
2023-01-30T00:32:30.969Z,24.63
2023-01-30T00:35:02.562Z,27.60
2023-01-30T00:37:29.703Z,26.90
2023-01-30T00:39:57.979Z,26.42
2023-01-30T00:42:45.668Z,27.63
2023-01-30T00:45:31.798Z,24.77
2023-01-30T00:48:01.684Z,24.33
2023-01-30T00:50:43.845Z,24.77
2023-01-30T00:53:13.624Z,25.38
2023-01-30T00:55:42.107Z,26.27
2023-01-30T00:58:10.006Z,27.60
2023-01-30T01:00:37.996Z,26.85
2023-01-30T01:03:05.534Z,26.70
2023-01-30T01:05:39.974Z,26.75
2023-01-30T01:08:07.412Z,28.60
2023-01-30T01:10:35.092Z,28.95
2023-01-30T01:13:02.271Z,27.52
2023-01-30T01:15:30.309Z,25.25
2023-01-30T01:17:59.784Z,24.58
2023-01-30T01:20:26.982Z,27.02
2023-01-30T01:22:57.951Z,29.00
2023-01-30T01:25:25.842Z,28.42
2023-01-30T01:27:53.941Z,28.08
2023-01-30T01:30:21.166Z,25.73
2023-01-30T01:32:50.884Z,24.80
2023-01-30T01:35:20.108Z,27.45
2023-01-30T01:37:47.418Z,24.70
2023-01-30T01:40:39.051Z,27.73
2023-01-30T01:45:51.989Z,27.27
2023-01-30T01:48:25.365Z,26.08
2023-01-30T01:51:03.675Z,24.70
2023-01-30T01:53:36.517Z,26.30
2023-01-30T01:56:06.085Z,26.85
2023-01-30T01:58:41.569Z,27.98
2023-01-30T02:01:09.024Z,30.85
2023-01-30T02:03:42.000Z,28.75
2023-01-30T02:06:10.296Z,28.05
2023-01-30T02:08:41.243Z,27.35
2023-01-30T02:11:13.429Z,25.95
2023-01-30T02:13:40.609Z,27.58
2023-01-30T02:16:09.502Z,23.73
2023-01-30T02:18:41.534Z,25.55
2023-01-30T02:21:50.268Z,24.50
2023-01-30T02:24:34.703Z,24.90
2023-01-30T02:27:18.711Z,24.50
2023-01-30T02:30:08.604Z,22.38
2023-01-30T02:32:49.585Z,21.48
2023-01-30T02:35:37.223Z,21.55
2023-01-30T02:38:36.629Z,23.48
2023-01-30T02:41:56.855Z,21.98
2023-01-30T02:55:31.036Z,17.73
2023-01-30T02:58:09.139Z,16.45
2023-01-30T03:01:04.036Z,16.58
2023-01-30T03:03:43.744Z,16.08
2023-01-30T03:35:33.884Z,12.32
2023-01-30T03:38:44.688Z,11.95
2023-01-30T03:45:36.645Z,12.13
2023-01-30T03:48:04.193Z,10.40
2023-01-30T03:50:32.428Z,11.02
2023-01-30T03:53:02.761Z,11.88
2023-01-30T03:55:29.995Z,10.48
2023-01-30T03:57:58.016Z,10.65
2023-01-30T04:00:29.512Z,10.65
2023-01-30T04:02:58.938Z,10.32
2023-01-30T04:05:27.163Z,8.90
2023-01-30T04:08:04.396Z,8.88
2023-01-30T04:10:31.533Z,8.98
2023-01-30T04:13:01.266Z,8.77
2023-01-30T04:15:29.505Z,8.63
2023-01-30T04:18:22.560Z,9.20
2023-01-30T04:21:01.816Z,9.77
2023-01-30T04:23:34.961Z,8.68
2023-01-30T04:26:04.495Z,9.27
2023-01-30T04:28:34.601Z,9.48
2023-01-30T04:31:02.243Z,8.88
2023-01-30T04:33:52.616Z,8.07
2023-01-30T04:36:20.146Z,10.15
2023-01-30T04:38:47.572Z,9.18
2023-01-30T04:41:17.873Z,9.65
2023-01-30T04:43:45.512Z,10.98
2023-01-30T04:46:36.580Z,9.43
2023-01-30T04:54:53.018Z,9.40
2023-01-30T04:57:44.540Z,9.32
2023-01-30T05:00:12.456Z,10.98
2023-01-30T05:02:51.287Z,8.65
2023-01-30T05:05:19.104Z,8.27
2023-01-30T05:07:46.596Z,7.88
2023-01-30T05:10:17.021Z,8.32
2023-01-30T05:12:47.454Z,7.60
2023-01-30T05:15:18.100Z,7.03
2023-01-30T05:17:45.947Z,7.45
2023-01-30T05:20:14.290Z,7.05
2023-01-30T05:22:41.585Z,7.00
2023-01-30T05:25:11.703Z,6.93
2023-01-30T05:27:39.157Z,6.68
2023-01-30T05:30:07.028Z,5.88
2023-01-30T05:32:35.112Z,5.28
2023-01-30T05:35:03.723Z,4.40
2023-01-30T05:37:33.563Z,4.72
2023-01-30T05:40:06.187Z,4.45
2023-01-30T05:42:35.972Z,3.85
2023-01-30T05:45:06.103Z,3.15
2023-01-30T05:47:35.751Z,3.30
2023-01-30T05:50:03.066Z,3.10
2023-01-30T05:52:32.040Z,4.13
2023-01-30T05:55:02.270Z,2.83
2023-01-30T05:57:30.862Z,2.85
2023-01-30T05:59:58.492Z,2.10
2023-01-30T06:02:37.857Z,1.83
2023-01-30T06:05:18.196Z,1.58
2023-01-30T06:07:51.832Z,2.25
2023-01-30T06:10:49.704Z,2.55
2023-01-30T06:13:48.057Z,1.88
2023-01-30T06:16:17.676Z,1.63
2023-01-30T06:24:13.790Z,1.77
2023-01-30T06:34:57.021Z,1.38
2023-01-30T06:37:31.932Z,1.40
2023-01-30T06:40:11.990Z,1.88
2023-01-30T11:25:09.593Z,2.90
2023-01-30T11:27:49.007Z,1.40
2023-01-30T11:31:05.408Z,2.08
2023-01-30T11:33:36.296Z,2.63
2023-01-30T11:36:26.200Z,2.03
2023-01-30T11:39:04.020Z,1.77
2023-01-30T11:50:36.500Z,1.42
2023-01-30T12:05:51.569Z,1.88
2023-01-30T12:08:40.587Z,2.00
2023-01-30T12:11:50.268Z,1.25
2023-01-30T12:37:07.731Z,1.35
2023-01-30T12:52:42.388Z,2.25
2023-01-30T13:05:07.724Z,1.38
2023-01-30T13:11:46.524Z,1.65
2023-01-30T13:14:25.679Z,1.08
2023-01-30T13:41:08.556Z,2.78
2023-01-30T13:56:42.619Z,2.20
2023-01-30T13:59:47.439Z,1.50
2023-01-30T14:02:34.991Z,1.88
2023-01-30T14:05:05.855Z,2.28
2023-01-30T14:08:12.289Z,2.55
2023-01-30T14:10:39.757Z,1.83
2023-01-30T14:13:19.716Z,1.85
2023-01-30T14:16:03.521Z,2.80
2023-01-30T14:18:53.361Z,2.28
2023-01-30T14:21:30.119Z,1.58
2023-01-30T14:24:06.100Z,2.55
2023-01-30T14:27:10.804Z,2.88
2023-01-30T14:30:11.975Z,1.73
2023-01-30T14:32:54.625Z,2.03
2023-01-30T15:13:54.277Z,2.20
2023-01-30T15:17:20.928Z,1.58
2023-01-30T15:20:28.103Z,1.58
2023-01-30T15:23:41.531Z,1.42
2023-01-30T15:30:43.716Z,1.45
2023-01-30T15:33:30.821Z,1.50
2023-01-30T15:39:55.865Z,2.83
2023-01-30T16:01:38.641Z,1.30
2023-01-30T16:04:25.692Z,1.73
2023-01-30T16:06:55.738Z,1.38
2023-01-30T16:12:28.432Z,1.52
2023-01-30T16:15:12.054Z,1.73
2023-01-30T16:18:00.244Z,1.10
2023-01-30T16:21:02.017Z,1.50
2023-01-30T16:27:40.853Z,1.42
2023-01-30T16:30:10.219Z,1.63
2023-01-30T16:32:38.907Z,1.65
2023-01-30T16:35:36.419Z,2.10
2023-01-30T16:38:29.282Z,1.92
2023-01-30T16:41:06.125Z,2.13
2023-01-30T16:44:12.433Z,1.58
2023-01-30T16:46:42.071Z,2.03
2023-01-30T16:49:19.218Z,1.33
2023-01-30T16:51:47.798Z,1.08
2023-01-30T16:54:35.608Z,1.10
2023-01-30T16:57:03.741Z,0.80
2023-01-30T16:59:43.609Z,1.00
2023-01-30T17:02:42.740Z,2.30
2023-01-30T17:05:22.435Z,1.25
2023-01-30T17:09:05.321Z,1.05
2023-01-30T17:11:35.462Z,1.35
2023-01-30T17:14:14.984Z,1.73
2023-01-30T17:16:43.213Z,1.23
2023-01-30T17:19:10.346Z,1.40
2023-01-30T17:21:51.473Z,1.25
2023-01-30T17:24:22.019Z,1.27
2023-01-30T17:26:59.347Z,1.25
2023-01-30T17:30:14.623Z,0.75
2023-01-30T17:32:41.938Z,1.13
2023-01-30T17:35:12.624Z,1.10
2023-01-30T17:37:39.915Z,1.02
2023-01-30T17:40:34.009Z,1.50
2023-01-30T17:43:01.595Z,2.53
2023-01-30T17:45:31.317Z,1.83
2023-01-30T17:47:59.580Z,2.25
2023-01-30T17:50:28.780Z,3.13
2023-01-30T17:52:56.247Z,1.25
2023-01-30T17:55:23.908Z,1.50
2023-01-30T17:57:54.321Z,1.23
2023-01-30T18:00:33.061Z,0.90
2023-01-30T18:03:07.695Z,1.52
2023-01-30T18:05:36.327Z,1.20
2023-01-30T18:08:03.909Z,0.90
2023-01-30T18:10:31.020Z,1.67
2023-01-30T18:13:01.278Z,1.55
2023-01-30T18:15:30.796Z,1.40
2023-01-30T18:19:08.804Z,1.70
2023-01-30T18:43:10.294Z,1.73
2023-01-30T18:45:45.031Z,1.90
2023-01-30T18:58:32.030Z,1.33
2023-01-30T19:01:29.958Z,2.08
2023-01-30T19:03:59.242Z,1.45
2023-01-30T19:06:29.836Z,2.33
2023-01-30T19:09:07.744Z,2.50
2023-01-30T19:14:44.279Z,1.38
2023-01-30T19:17:15.230Z,1.73
2023-01-30T19:19:47.456Z,1.30
2023-01-30T19:25:00.286Z,1.33
2023-01-30T19:28:57.078Z,1.35
2023-01-30T19:31:52.400Z,1.17
2023-01-30T19:58:25.013Z,1.65
2023-01-30T20:03:44.880Z,1.60
2023-01-30T20:10:44.562Z,1.38
2023-01-30T20:40:22.266Z,1.30
2023-01-30T20:48:16.700Z,1.23
2023-01-30T20:51:23.965Z,1.20
2023-01-30T20:54:01.000Z,1.17
2023-01-30T20:56:44.622Z,1.23
2023-01-30T21:02:53.192Z,1.40
2023-01-30T21:05:20.603Z,1.35
2023-01-30T21:07:48.059Z,1.70
2023-01-30T21:10:22.614Z,1.48
2023-01-30T21:13:04.795Z,1.48
2023-01-30T21:15:31.928Z,1.60
2023-01-30T21:17:59.247Z,1.25
2023-01-30T21:20:26.290Z,1.67
2023-01-30T21:23:02.408Z,1.40
2023-01-30T21:25:39.637Z,2.17
2023-01-30T21:28:07.951Z,1.98
2023-01-30T21:32:30.651Z,1.63
2023-01-30T21:34:36.860Z,1.65
2023-01-30T21:37:25.773Z,1.10
2023-01-30T21:40:20.134Z,1.10
2023-01-30T21:43:05.664Z,1.42
2023-01-30T21:45:35.383Z,2.35
2023-01-30T21:48:02.523Z,1.75
2023-01-30T21:50:33.485Z,1.33
2023-01-30T21:53:01.911Z,1.30
2023-01-30T21:55:31.619Z,1.30
2023-01-30T21:57:59.085Z,1.65
2023-01-30T22:00:26.159Z,1.00
2023-01-30T22:02:53.214Z,1.23
2023-01-30T22:05:20.549Z,1.52
2023-01-30T22:07:47.949Z,1.10
2023-01-30T22:10:15.083Z,1.55
2023-01-30T22:12:52.623Z,1.08
2023-01-30T22:15:21.961Z,1.27
2023-01-30T22:17:49.928Z,1.13
2023-01-30T22:20:17.248Z,1.40
2023-01-30T22:22:44.348Z,1.40
2023-01-30T22:25:18.004Z,1.50
2023-01-30T22:27:45.618Z,0.90
2023-01-30T22:30:19.629Z,1.08
2023-01-30T22:32:52.817Z,1.20
2023-01-30T22:35:20.439Z,1.75
2023-01-30T22:37:47.687Z,1.50
2023-01-30T22:40:58.301Z,1.60
2023-01-30T22:43:29.943Z,0.93
2023-01-30T22:46:02.633Z,1.38
2023-01-30T22:48:30.797Z,1.02
2023-01-30T22:51:18.728Z,1.10
2023-01-30T22:53:50.956Z,1.20
2023-01-30T22:56:21.058Z,1.50
2023-01-30T22:58:49.173Z,0.88
2023-01-30T23:01:35.050Z,0.85
2023-01-30T23:04:57.009Z,1.27
2023-01-30T23:07:44.639Z,1.10
2023-01-30T23:10:14.496Z,1.35
2023-01-30T23:13:00.101Z,0.95
2023-01-30T23:15:37.105Z,0.90
2023-01-30T23:18:22.913Z,1.40
2023-01-30T23:21:00.281Z,1.25
2023-01-30T23:23:29.859Z,1.02
2023-01-30T23:25:56.952Z,1.30
2023-01-30T23:28:44.573Z,0.90
2023-01-30T23:31:44.221Z,0.60
2023-01-30T23:34:17.169Z,0.60
2023-01-30T23:36:47.924Z,1.02
2023-01-30T23:39:15.376Z,0.40
2023-01-30T23:41:43.298Z,0.40
2023-01-30T23:44:10.872Z,0.68
2023-01-30T23:46:42.752Z,0.82
2023-01-30T23:49:15.016Z,0.73
2023-01-30T23:51:45.988Z,0.50
2023-01-30T23:54:19.885Z,0.50
2023-01-30T23:56:56.139Z,0.70
2023-01-30T23:59:26.590Z,0.90
